Time;durP1;ratioP1;P1;durP2;ratioP2;P2;SDS_P1;SDS_P2;PMS_P1;PMS_P2;Temp;Humidity;BMP_temperature;BMP_pressure;BME280_temperature;BME280_humidity;BME280_pressure;Samples;Min_cycle;Max_cycle;Signal;HPM_P1;HPM_P2
2021/08/31 07:48:03;;;;;;;1.35;0.73;;;21.20;58.60;;;;;;5611478;24;20691;-67
2021/08/31 07:50:30;;;;;;;8.50;0.90;;;21.20;58.40;;;;;;4802563;29;20150;-73
2021/08/31 07:52:57;;;;;;;1.17;0.90;;;21.20;58.70;;;;;;4804275;29;20607;-60
2021/08/31 07:55:25;;;;;;;0.70;0.68;;;21.30;59.00;;;;;;4814769;29;20082;-72
2021/08/31 07:57:53;;;;;;;1.13;0.63;;;21.30;58.80;;;;;;4815069;29;20042;-71
2021/08/31 08:00:20;;;;;;;1.88;0.77;;;21.30;58.60;;;;;;4822426;29;20054;-71
2021/08/31 08:02:47;;;;;;;1.25;0.73;;;21.30;58.70;;;;;;4805495;29;20348;-74
2021/08/31 08:05:14;;;;;;;3.40;1.00;;;21.30;58.60;;;;;;4810860;29;20098;-71
2021/08/31 08:07:41;;;;;;;1.30;0.90;;;21.30;58.40;;;;;;4811717;29;20072;-75
2021/08/31 08:10:09;;;;;;;2.63;1.20;;;21.30;58.30;;;;;;4812265;29;20137;-72
2021/08/31 08:12:37;;;;;;;0.68;0.68;;;21.30;58.60;;;;;;4808362;29;20831;-74
2021/08/31 08:15:05;;;;;;;3.72;1.17;;;21.30;58.40;;;;;;4810610;29;20124;-74
2021/08/31 08:17:32;;;;;;;6.00;0.80;;;21.30;58.40;;;;;;4818411;29;20405;-73
2021/08/31 08:19:59;;;;;;;1.02;0.85;;;21.30;58.50;;;;;;4818924;29;20442;-74
2021/08/31 08:22:29;;;;;;;1.40;0.70;;;21.30;58.50;;;;;;4807512;29;20279;-72
2021/08/31 08:24:56;;;;;;;1.70;1.10;;;21.40;58.40;;;;;;4815146;29;20596;-71
2021/08/31 08:27:23;;;;;;;3.38;1.45;;;21.30;58.10;;;;;;4816937;29;21704;-73
2021/08/31 08:29:50;;;;;;;1.05;0.95;;;21.30;58.30;;;;;;4816794;29;20411;-70
2021/08/31 08:32:17;;;;;;;1.10;0.60;;;21.40;58.20;;;;;;4810518;29;20118;-71
2021/08/31 08:34:44;;;;;;;0.77;0.60;;;21.40;58.10;;;;;;4817513;29;20487;-70
2021/08/31 08:37:12;;;;;;;2.78;1.00;;;21.40;58.20;;;;;;4820399;29;20508;-73
2021/08/31 08:39:39;;;;;;;2.83;0.88;;;21.40;58.30;;;;;;4819583;29;20078;-77
2021/08/31 08:42:08;;;;;;;3.42;0.57;;;21.40;58.30;;;;;;4810923;29;20058;-72
2021/08/31 08:44:36;;;;;;;2.28;0.52;;;21.40;58.20;;;;;;4818622;29;20885;-75
2021/08/31 08:47:03;;;;;;;0.60;0.60;;;21.40;58.40;;;;;;4821809;29;21245;-77
2021/08/31 08:49:31;;;;;;;2.55;0.85;;;21.40;58.50;;;;;;4818436;29;20190;-75
2021/08/31 08:51:59;;;;;;;0.60;0.60;;;21.40;58.20;;;;;;4810810;29;20137;-76
2021/08/31 08:54:27;;;;;;;3.83;0.77;;;21.40;58.00;;;;;;4813404;29;20911;-76
2021/08/31 08:56:55;;;;;;;1.27;0.90;;;21.40;58.00;;;;;;4821698;29;20049;-74
2021/08/31 08:59:23;;;;;;;0.90;0.85;;;21.50;57.90;;;;;;4817002;29;20388;-75
2021/08/31 09:01:54;;;;;;;3.40;1.05;;;21.50;57.70;;;;;;4806550;29;20046;-78
2021/08/31 09:04:46;;;;;;;0.98;0.88;;;21.50;57.70;;;;;;4812223;29;20155;-78
2021/08/31 09:07:26;;;;;;;0.52;0.52;;;21.50;57.40;;;;;;4816495;29;20140;-79
2021/08/31 09:10:21;;;;;;;1.77;0.90;;;21.50;57.50;;;;;;4818668;29;20477;-76
2021/08/31 09:12:51;;;;;;;2.50;0.73;;;21.50;57.50;;;;;;4810648;29;20111;-78
2021/08/31 09:15:38;;;;;;;1.17;0.75;;;21.50;57.40;;;;;;4825401;29;20060;-73
2021/08/31 09:18:11;;;;;;;1.00;0.80;;;21.50;57.50;;;;;;4816762;29;20495;-78
2021/08/31 09:21:04;;;;;;;0.52;0.52;;;21.60;57.40;;;;;;4817569;29;20054;-73
2021/08/31 09:23:34;;;;;;;0.70;0.70;;;21.60;57.80;;;;;;4809246;29;20066;-69
2021/08/31 09:26:12;;;;;;;0.80;0.70;;;21.70;57.20;;;;;;4817989;29;20443;-72
2021/08/31 09:28:41;;;;;;;3.17;0.70;;;21.70;57.10;;;;;;4817216;29;20061;-71
2021/08/31 09:31:19;;;;;;;0.50;0.37;;;21.70;57.10;;;;;;4818752;29;20427;-67
2021/08/31 09:33:49;;;;;;;0.60;0.60;;;21.70;57.00;;;;;;4821272;29;20166;-68
2021/08/31 09:36:19;;;;;;;3.95;0.77;;;21.80;57.10;;;;;;4818872;29;20145;-68
2021/08/31 09:38:55;;;;;;;2.03;1.00;;;21.80;57.00;;;;;;4820752;29;20056;-69
2021/08/31 09:41:41;;;;;;;1.15;0.70;;;21.80;57.00;;;;;;4817716;29;20591;-67
2021/08/31 09:44:22;;;;;;;0.68;0.68;;;21.80;57.00;;;;;;4811114;29;20117;-68
2021/08/31 09:46:59;;;;;;;3.20;0.60;;;21.70;57.00;;;;;;4820119;29;20440;-71
2021/08/31 09:49:34;;;;;;;0.95;0.55;;;21.70;57.20;;;;;;4817681;29;20168;-72
2021/08/31 09:52:15;;;;;;;3.05;0.70;;;21.70;57.50;;;;;;4812139;29;20268;-71
2021/08/31 09:54:43;;;;;;;;;;;21.70;57.70;;;;;;4813901;29;20056;-72
2021/08/31 09:57:35;;;;;;;0.52;0.52;;;21.70;57.70;;;;;;4825697;29;20294;-70
2021/08/31 10:00:10;;;;;;;0.95;0.73;;;21.70;57.80;;;;;;4819795;29;20150;-73
2021/08/31 10:02:40;;;;;;;0.65;0.65;;;21.80;57.90;;;;;;4824675;29;20064;-74
2021/08/31 10:05:07;;;;;;;2.80;0.70;;;21.80;57.90;;;;;;4816567;29;20050;-74
2021/08/31 10:07:35;;;;;;;2.67;0.93;;;21.80;57.90;;;;;;4820539;29;20058;-73
2021/08/31 10:10:03;;;;;;;1.33;0.68;;;21.80;57.90;;;;;;4815384;29;20085;-70
2021/08/31 10:12:32;;;;;;;1.13;1.00;;;21.80;57.70;;;;;;4813104;29;20133;-70
2021/08/31 10:15:01;;;;;;;1.23;1.10;;;21.90;57.60;;;;;;4804435;29;20058;-70
2021/08/31 10:17:29;;;;;;;1.92;0.80;;;21.90;57.40;;;;;;4819768;29;20133;-73
2021/08/31 10:20:03;;;;;;;0.80;0.80;;;21.90;57.40;;;;;;4817749;29;21580;-71
2021/08/31 10:22:31;;;;;;;1.20;1.10;;;21.90;57.10;;;;;;4808606;29;20066;-70
2021/08/31 10:25:00;;;;;;;1.58;1.02;;;21.90;57.00;;;;;;4814996;29;20061;-70
2021/08/31 10:27:35;;;;;;;1.23;0.93;;;21.90;57.00;;;;;;4817152;29;20060;-70
2021/08/31 10:30:29;;;;;;;2.40;0.90;;;21.90;57.10;;;;;;4819138;29;20064;-67
2021/08/31 10:32:59;;;;;;;0.85;0.82;;;21.90;57.30;;;;;;4808167;29;20054;-74
2021/08/31 10:35:50;;;;;;;0.73;0.73;;;21.90;56.90;;;;;;4816639;29;20419;-76
2021/08/31 10:38:51;;;;;;;0.88;0.88;;;21.90;57.00;;;;;;4815953;29;20061;-71
2021/08/31 10:41:43;;;;;;;0.93;0.90;;;21.90;57.10;;;;;;4814503;29;20145;-71
2021/08/31 10:44:31;;;;;;;2.67;1.20;;;21.90;56.90;;;;;;4810944;29;20042;-67
2021/08/31 10:47:07;;;;;;;2.20;1.17;;;21.90;56.80;;;;;;4817389;29;20103;-71
2021/08/31 10:50:15;;;;;;;3.20;0.90;;;21.90;56.90;;;;;;4823329;29;20109;-71
2021/08/31 10:52:49;;;;;;;0.90;0.90;;;21.90;56.60;;;;;;4805408;29;20145;-69
2021/08/31 10:55:37;;;;;;;1.35;1.25;;;21.90;56.70;;;;;;4813955;29;20133;-70
2021/08/31 10:58:09;;;;;;;4.65;1.00;;;21.90;56.30;;;;;;4820032;29;20073;-70
2021/08/31 11:00:47;;;;;;;1.00;0.77;;;21.90;56.30;;;;;;4817705;29;20503;-69
2021/08/31 11:03:30;;;;;;;0.98;0.90;;;21.80;56.00;;;;;;4813964;29;20149;-69
2021/08/31 11:06:18;;;;;;;4.35;1.30;;;21.90;56.20;;;;;;4818041;29;20150;-74
2021/08/31 11:09:11;;;;;;;0.80;0.77;;;21.80;56.20;;;;;;4815487;29;20536;-68
2021/08/31 11:11:41;;;;;;;1.30;1.00;;;21.90;56.20;;;;;;4808678;29;20129;-70
2021/08/31 11:14:08;;;;;;;0.90;0.73;;;21.90;56.30;;;;;;4815957;29;20050;-71
2021/08/31 11:16:37;;;;;;;0.90;0.90;;;21.90;56.10;;;;;;4819751;29;20050;-69
2021/08/31 11:19:06;;;;;;;1.15;1.05;;;21.90;56.20;;;;;;4824511;29;20424;-73
2021/08/31 11:21:47;;;;;;;1.10;0.90;;;21.90;56.00;;;;;;4811156;29;20137;-71
2021/08/31 11:24:15;;;;;;;0.80;0.80;;;21.90;55.90;;;;;;4816480;29;20049;-72
2021/08/31 11:26:42;;;;;;;1.50;1.40;;;21.90;56.00;;;;;;4815637;29;20087;-70
2021/08/31 11:29:12;;;;;;;0.95;0.88;;;21.90;55.80;;;;;;4818120;29;20060;-70
2021/08/31 11:31:39;;;;;;;2.10;0.93;;;21.90;55.70;;;;;;4812861;29;20056;-71
2021/08/31 11:34:11;;;;;;;1.00;0.80;;;22.00;55.60;;;;;;4809803;29;20310;-67
2021/08/31 11:36:41;;;;;;;1.33;0.98;;;22.00;55.60;;;;;;4813412;29;20078;-68
2021/08/31 11:39:11;;;;;;;0.70;0.70;;;22.00;55.60;;;;;;4819249;29;20054;-68
2021/08/31 11:41:44;;;;;;;3.63;1.35;;;22.00;55.50;;;;;;4810619;29;20145;-67
2021/08/31 11:44:16;;;;;;;0.90;0.90;;;22.10;55.40;;;;;;4811012;29;20062;-72
2021/08/31 11:46:48;;;;;;;1.00;0.82;;;22.10;55.30;;;;;;4817406;29;20046;-69
2021/08/31 11:49:19;;;;;;;1.17;1.02;;;22.10;55.20;;;;;;4815976;29;20535;-66
2021/08/31 11:52:06;;;;;;;;;;;22.20;55.30;;;;;;4831629;29;20060;-69
2021/08/31 11:54:39;;;;;;;0.80;0.80;;;22.10;55.70;;;;;;4813739;29;20015;-69
2021/08/31 11:57:13;;;;;;;3.28;0.88;;;22.10;55.20;;;;;;4818860;29;20068;-72
2021/08/31 11:59:43;;;;;;;1.17;0.90;;;22.10;55.20;;;;;;4817873;29;20114;-74
2021/08/31 12:02:30;;;;;;;;;;;22.20;55.30;;;;;;4811205;29;20170;-72
2021/08/31 12:05:05;;;;;;;1.23;0.70;;;22.10;55.20;;;;;;4812929;29;19959;-72
2021/08/31 12:07:44;;;;;;;0.77;0.77;;;22.20;55.10;;;;;;4815714;29;20133;-69
2021/08/31 12:10:18;;;;;;;0.70;0.70;;;22.20;55.10;;;;;;4815930;29;20435;-72
2021/08/31 12:12:46;;;;;;;1.35;0.90;;;22.20;55.10;;;;;;4805764;29;20145;-68
2021/08/31 12:15:13;;;;;;;0.95;0.95;;;22.20;55.00;;;;;;4810975;29;20058;-71
2021/08/31 12:17:45;;;;;;;0.60;0.60;;;22.20;54.70;;;;;;4813605;29;20137;-68
2021/08/31 12:20:17;;;;;;;0.60;0.60;;;22.30;54.80;;;;;;4814317;29;20228;-70
2021/08/31 12:22:47;;;;;;;1.48;0.80;;;22.30;55.00;;;;;;4807508;29;20149;-68
2021/08/31 12:25:15;;;;;;;0.75;0.73;;;22.30;54.90;;;;;;4808154;29;20093;-68
2021/08/31 12:27:48;;;;;;;1.10;0.80;;;22.30;54.70;;;;;;4813477;29;20456;-66
2021/08/31 12:30:18;;;;;;;0.70;0.70;;;22.30;54.70;;;;;;4814402;29;20058;-69
2021/08/31 12:32:55;;;;;;;0.80;0.80;;;22.30;54.70;;;;;;4803692;29;20419;-67
2021/08/31 12:35:31;;;;;;;3.63;0.63;;;22.30;54.70;;;;;;4811254;29;20519;-66
2021/08/31 12:38:17;;;;;;;0.63;0.60;;;22.30;54.80;;;;;;4813001;29;20065;-68
2021/08/31 12:40:59;;;;;;;0.95;0.73;;;22.30;55.00;;;;;;4817694;29;20081;-69
2021/08/31 12:43:29;;;;;;;2.20;0.52;;;22.30;55.00;;;;;;4807910;29;20408;-69
2021/08/31 12:46:02;;;;;;;0.75;0.63;;;22.30;55.00;;;;;;4817638;29;20054;-67
2021/08/31 12:48:37;;;;;;;1.75;0.85;;;22.30;54.90;;;;;;4818400;29;20065;-68
2021/08/31 12:51:06;;;;;;;1.02;0.65;;;22.40;54.80;;;;;;4819484;29;20145;-68
2021/08/31 12:53:38;;;;;;;1.70;0.55;;;22.40;54.80;;;;;;4808288;29;20059;-69
2021/08/31 12:56:08;;;;;;;1.50;0.60;;;22.40;54.80;;;;;;4814847;29;20058;-70
2021/08/31 12:58:38;;;;;;;1.10;1.00;;;22.40;55.00;;;;;;4818535;29;20098;-72
2021/08/31 13:01:17;;;;;;;1.00;0.85;;;22.40;55.10;;;;;;4823632;29;20106;-73
2021/08/31 13:03:48;;;;;;;2.05;0.60;;;22.30;55.30;;;;;;4807751;29;20066;-69
2021/08/31 13:06:40;;;;;;;0.40;0.40;;;22.30;55.50;;;;;;4820916;29;20141;-69
2021/08/31 13:09:10;;;;;;;6.43;1.33;;;22.30;55.50;;;;;;4817345;29;20093;-70
2021/08/31 13:11:41;;;;;;;1.42;1.00;;;22.30;55.30;;;;;;4814088;29;20402;-70
2021/08/31 13:14:20;;;;;;;0.80;0.80;;;22.30;55.30;;;;;;4814745;29;20054;-69
2021/08/31 13:16:48;;;;;;;0.88;0.70;;;22.30;55.10;;;;;;4816906;29;20085;-68
2021/08/31 13:19:16;;;;;;;1.42;0.70;;;22.30;55.10;;;;;;4815627;29;20082;-67
2021/08/31 13:21:44;;;;;;;0.70;0.70;;;22.30;55.30;;;;;;4811424;29;20069;-67
2021/08/31 13:24:13;;;;;;;2.28;1.02;;;22.30;55.40;;;;;;4815919;29;20054;-74
2021/08/31 13:26:42;;;;;;;1.55;0.80;;;22.30;55.50;;;;;;4821086;29;20127;-74
2021/08/31 13:29:10;;;;;;;1.42;0.50;;;22.30;55.50;;;;;;4816870;29;20050;-68
2021/08/31 13:31:38;;;;;;;2.28;1.33;;;22.30;55.40;;;;;;4818806;29;20133;-70
2021/08/31 13:34:09;;;;;;;0.60;0.60;;;22.30;55.30;;;;;;4816263;29;20065;-69
2021/08/31 13:36:41;;;;;;;0.60;0.60;;;22.40;55.40;;;;;;4817839;29;20129;-71
2021/08/31 13:39:10;;;;;;;0.50;0.50;;;22.40;55.60;;;;;;4827676;29;20110;-72
2021/08/31 13:41:38;;;;;;;0.50;0.50;;;22.40;55.40;;;;;;4813603;29;20182;-71
2021/08/31 13:44:06;;;;;;;0.80;0.80;;;22.40;55.40;;;;;;4815985;29;20137;-70
2021/08/31 13:46:33;;;;;;;1.48;0.68;;;22.40;55.40;;;;;;4819276;29;20078;-72
2021/08/31 13:49:02;;;;;;;0.40;0.40;;;22.50;55.40;;;;;;4819562;29;20058;-69
2021/08/31 13:51:31;;;;;;;2.15;0.60;;;22.40;55.30;;;;;;4812257;29;20066;-71
2021/08/31 13:53:58;;;;;;;0.38;0.38;;;22.40;55.40;;;;;;4806051;29;20133;-74
2021/08/31 13:56:26;;;;;;;1.40;0.47;;;22.40;55.50;;;;;;4819166;29;20540;-75
2021/08/31 13:58:53;;;;;;;3.22;0.50;;;22.40;55.50;;;;;;4814793;29;20093;-69
2021/08/31 14:01:20;;;;;;;2.80;0.45;;;22.40;55.50;;;;;;4812667;29;20133;-73
2021/08/31 14:03:53;;;;;;;1.10;0.40;;;22.40;55.50;;;;;;4811215;29;20526;-69
2021/08/31 14:06:20;;;;;;;2.63;0.50;;;22.40;54.80;;;;;;4814312;29;20046;-69
2021/08/31 14:08:47;;;;;;;0.32;0.32;;;22.50;52.70;;;;;;4819135;29;20077;-71
2021/08/31 14:11:15;;;;;;;0.52;0.45;;;22.60;51.70;;;;;;4814471;29;20106;-72
2021/08/31 14:13:42;;;;;;;1.30;0.35;;;22.60;51.30;;;;;;4810244;29;20054;-67
2021/08/31 14:16:09;;;;;;;0.40;0.30;;;22.60;50.70;;;;;;4819038;29;20054;-74
2021/08/31 14:18:43;;;;;;;3.78;0.50;;;22.70;50.90;;;;;;4821379;29;20054;-69
2021/08/31 14:21:11;;;;;;;1.95;0.40;;;22.60;50.80;;;;;;4817051;29;20089;-67
2021/08/31 14:23:39;;;;;;;0.38;0.38;;;22.70;50.70;;;;;;4809535;29;20080;-67
2021/08/31 14:26:06;;;;;;;0.57;0.50;;;22.70;50.40;;;;;;4814123;29;20169;-67
2021/08/31 14:28:33;;;;;;;0.60;0.60;;;22.70;50.00;;;;;;4816040;29;20054;-69
2021/08/31 14:31:02;;;;;;;0.43;0.30;;;22.70;49.80;;;;;;4818561;29;20050;-73
2021/08/31 14:33:30;;;;;;;0.32;0.32;;;22.80;50.20;;;;;;4811069;29;20057;-73
2021/08/31 14:35:57;;;;;;;0.25;0.22;;;22.70;50.60;;;;;;4813899;29;20054;-73
2021/08/31 14:38:24;;;;;;;0.40;0.40;;;22.70;50.80;;;;;;4819992;29;20088;-74
2021/08/31 14:40:51;;;;;;;0.40;0.40;;;22.70;51.20;;;;;;4811759;29;20162;-75
2021/08/31 14:43:19;;;;;;;0.20;0.20;;;22.60;51.40;;;;;;4807884;29;20082;-72
2021/08/31 14:45:46;;;;;;;2.35;1.38;;;22.60;51.70;;;;;;4817802;29;20150;-72
2021/08/31 14:48:13;;;;;;;0.40;0.40;;;22.60;52.00;;;;;;4818836;29;20092;-71
2021/08/31 14:50:40;;;;;;;0.75;0.40;;;22.60;52.40;;;;;;4819701;29;20125;-71
2021/08/31 14:53:07;;;;;;;3.25;1.00;;;22.50;52.70;;;;;;4808899;29;20135;-72
2021/08/31 14:55:35;;;;;;;4.68;0.35;;;22.40;53.00;;;;;;4817442;29;20059;-71
2021/08/31 14:58:02;;;;;;;1.33;0.43;;;22.40;53.50;;;;;;4818476;29;20137;-72
2021/08/31 15:00:29;;;;;;;0.98;0.55;;;22.30;53.90;;;;;;4819473;29;20061;-71
2021/08/31 15:02:56;;;;;;;3.75;0.20;;;22.30;54.30;;;;;;4810609;29;20062;-71
2021/08/31 15:05:24;;;;;;;1.05;0.30;;;22.30;54.90;;;;;;4816794;29;20050;-70
2021/08/31 15:07:52;;;;;;;0.68;0.52;;;22.30;55.20;;;;;;4819258;29;20082;-71
2021/08/31 15:10:19;;;;;;;2.83;0.50;;;22.30;55.50;;;;;;4821237;29;20125;-71
2021/08/31 15:12:47;;;;;;;1.95;0.52;;;22.30;55.80;;;;;;4818296;29;20423;-72
2021/08/31 15:15:14;;;;;;;8.15;0.60;;;22.30;56.30;;;;;;4821899;29;20495;-71
2021/08/31 15:17:41;;;;;;;0.50;0.40;;;22.40;56.40;;;;;;4827335;29;20556;-71
2021/08/31 15:20:09;;;;;;;0.45;0.30;;;22.40;56.50;;;;;;4828461;29;20089;-70
2021/08/31 15:22:37;;;;;;;1.40;0.55;;;22.40;56.80;;;;;;4817466;29;20149;-70
2021/08/31 15:25:05;;;;;;;0.52;0.35;;;22.50;56.80;;;;;;4826190;29;20049;-70
2021/08/31 15:27:32;;;;;;;1.60;0.43;;;22.60;56.60;;;;;;4825092;29;20053;-71
2021/08/31 15:29:59;;;;;;;1.67;0.40;;;22.60;56.60;;;;;;4825916;29;20054;-71
2021/08/31 15:32:26;;;;;;;0.57;0.50;;;22.70;56.40;;;;;;4817755;29;20143;-70
2021/08/31 15:34:54;;;;;;;1.98;0.45;;;22.80;56.20;;;;;;4825065;29;20072;-71
2021/08/31 15:37:22;;;;;;;0.50;0.50;;;22.80;55.80;;;;;;4825927;29;20133;-71
2021/08/31 15:39:49;;;;;;;1.02;0.40;;;22.80;55.40;;;;;;4825249;29;20089;-72
2021/08/31 15:42:17;;;;;;;1.50;0.55;;;22.90;55.60;;;;;;4816950;29;20530;-71
2021/08/31 15:44:44;;;;;;;2.60;0.55;;;22.90;54.70;;;;;;4821847;29;20133;-71
2021/08/31 15:47:12;;;;;;;0.98;0.80;;;23.00;54.40;;;;;;4825821;29;20496;-70
2021/08/31 15:49:39;;;;;;;3.03;0.50;;;23.00;54.20;;;;;;4825621;29;20119;-68
2021/08/31 15:52:06;;;;;;;2.67;0.50;;;23.20;54.40;;;;;;4821124;29;20050;-67
2021/08/31 15:54:40;;;;;;;0.90;0.40;;;23.20;54.70;;;;;;4815833;29;20137;-73
2021/08/31 15:57:12;;;;;;;0.20;0.20;;;23.30;55.10;;;;;;4823688;29;20050;-74
2021/08/31 15:59:41;;;;;;;0.70;0.50;;;23.30;55.30;;;;;;4822976;29;20051;-73
2021/08/31 16:02:10;;;;;;;1.20;0.50;;;23.40;55.70;;;;;;4812321;29;20074;-72
2021/08/31 16:04:38;;;;;;;0.63;0.30;;;23.40;55.80;;;;;;4816762;29;20086;-72
2021/08/31 16:07:06;;;;;;;1.10;0.50;;;23.50;56.00;;;;;;4818670;29;20050;-70
2021/08/31 16:09:33;;;;;;;0.20;0.20;;;23.50;56.10;;;;;;4818827;29;20050;-72
2021/08/31 16:12:00;;;;;;;0.52;0.30;;;23.60;56.60;;;;;;4813301;29;20090;-73
2021/08/31 16:14:27;;;;;;;0.70;0.40;;;23.70;56.50;;;;;;4817026;29;20133;-73
2021/08/31 16:16:55;;;;;;;0.60;0.47;;;23.80;56.80;;;;;;4817650;29;20560;-73
2021/08/31 16:19:22;;;;;;;3.60;0.60;;;23.90;56.80;;;;;;4818715;29;20145;-73
2021/08/31 16:21:49;;;;;;;4.32;0.60;;;24.10;56.60;;;;;;4813800;29;20060;-72
2021/08/31 16:24:17;;;;;;;0.40;0.38;;;24.20;57.00;;;;;;4816902;29;20062;-72
2021/08/31 16:26:44;;;;;;;1.98;0.90;;;24.30;57.00;;;;;;4817605;29;20046;-73
2021/08/31 16:29:16;;;;;;;3.65;0.73;;;24.30;56.90;;;;;;4818599;29;20253;-72
2021/08/31 16:31:44;;;;;;;1.52;0.65;;;24.40;56.60;;;;;;4815050;29;20137;-72
2021/08/31 16:34:12;;;;;;;2.28;1.10;;;24.50;56.40;;;;;;4814675;29;20451;-72
2021/08/31 16:36:41;;;;;;;1.27;0.40;;;24.50;55.90;;;;;;4818535;29;20454;-73
2021/08/31 16:39:08;;;;;;;2.60;0.50;;;24.50;55.30;;;;;;4818770;29;20054;-73
2021/08/31 16:41:36;;;;;;;1.48;0.40;;;24.60;54.90;;;;;;4815241;29;20060;-72
2021/08/31 16:44:03;;;;;;;1.73;0.40;;;24.60;54.40;;;;;;4815223;29;20522;-72
2021/08/31 16:46:32;;;;;;;2.67;0.50;;;24.60;54.10;;;;;;4817831;29;20086;-72
2021/08/31 16:48:59;;;;;;;0.85;0.60;;;24.70;53.70;;;;;;4818430;29;20118;-72
2021/08/31 16:51:26;;;;;;;1.80;0.65;;;24.70;53.30;;;;;;4815755;29;20141;-72
2021/08/31 16:53:53;;;;;;;1.02;0.52;;;24.70;53.00;;;;;;4813854;29;20042;-72
2021/08/31 16:56:41;;;;;;;3.03;0.40;;;24.70;52.90;;;;;;4818250;29;20050;-72
2021/08/31 16:59:08;;;;;;;1.55;0.40;;;24.70;52.80;;;;;;4818531;29;20082;-73
2021/08/31 17:01:35;;;;;;;1.65;0.40;;;24.70;52.60;;;;;;4814599;29;20055;-71
2021/08/31 17:04:02;;;;;;;0.75;0.30;;;24.70;52.50;;;;;;4813747;29;20400;-72
2021/08/31 17:06:29;;;;;;;0.70;0.57;;;24.70;52.50;;;;;;4817899;29;20412;-72
2021/08/31 17:08:56;;;;;;;2.58;0.60;;;24.70;52.40;;;;;;4818199;29;20566;-71
2021/08/31 17:11:24;;;;;;;1.30;0.50;;;24.70;52.40;;;;;;4813853;29;20145;-71
2021/08/31 17:13:51;;;;;;;0.50;0.40;;;24.70;52.40;;;;;;4813892;29;20054;-71
2021/08/31 17:16:18;;;;;;;0.63;0.57;;;24.70;52.30;;;;;;4817699;29;20112;-71
2021/08/31 17:18:45;;;;;;;0.75;0.50;;;24.70;52.30;;;;;;4818134;29;20050;-72
2021/08/31 17:21:12;;;;;;;0.50;0.50;;;24.70;52.30;;;;;;4816324;29;20125;-70
2021/08/31 17:23:39;;;;;;;0.40;0.40;;;24.60;52.20;;;;;;4814055;29;20098;-71
2021/08/31 17:26:08;;;;;;;1.58;0.50;;;24.70;52.20;;;;;;4818307;29;20129;-73
2021/08/31 17:28:35;;;;;;;0.65;0.40;;;24.60;52.10;;;;;;4819932;29;20055;-72
2021/08/31 17:31:03;;;;;;;2.15;0.45;;;24.60;52.40;;;;;;4820645;29;20082;-71
2021/08/31 17:33:30;;;;;;;1.48;0.47;;;24.60;52.10;;;;;;4815384;29;20487;-72
2021/08/31 17:35:57;;;;;;;0.55;0.40;;;24.50;52.10;;;;;;4821518;29;20105;-71
2021/08/31 17:38:24;;;;;;;0.68;0.45;;;24.50;52.20;;;;;;4820022;29;20089;-72
2021/08/31 17:40:52;;;;;;;1.40;0.50;;;24.50;52.30;;;;;;4821245;29;20050;-72
2021/08/31 17:43:19;;;;;;;1.17;0.30;;;24.50;52.40;;;;;;4812298;29;20456;-73
2021/08/31 17:45:47;;;;;;;0.80;0.45;;;24.50;52.50;;;;;;4820912;29;20416;-72
2021/08/31 17:48:14;;;;;;;0.30;0.30;;;24.50;52.50;;;;;;4821124;29;20054;-72
2021/08/31 17:50:43;;;;;;;0.50;0.40;;;24.40;52.50;;;;;;4821146;29;20129;-71
2021/08/31 17:53:12;;;;;;;0.40;0.30;;;24.40;52.60;;;;;;4828320;29;20141;-71
2021/08/31 17:55:40;;;;;;;0.30;0.28;;;24.40;52.60;;;;;;4820778;29;20090;-73
2021/08/31 17:58:08;;;;;;;0.30;0.30;;;24.40;52.60;;;;;;4820879;29;20054;-72
2021/08/31 18:00:35;;;;;;;1.20;0.38;;;24.30;52.50;;;;;;4820693;29;20495;-72
2021/08/31 18:03:02;;;;;;;0.45;0.40;;;24.30;52.50;;;;;;4813973;29;20141;-71
2021/08/31 18:05:30;;;;;;;1.38;0.85;;;24.30;52.40;;;;;;4820943;29;20062;-72
2021/08/31 18:07:57;;;;;;;3.92;0.40;;;24.30;52.40;;;;;;4820030;29;20058;-72
2021/08/31 18:10:24;;;;;;;0.57;0.57;;;24.30;52.40;;;;;;4820739;29;20092;-72
2021/08/31 18:12:52;;;;;;;0.52;0.50;;;24.30;52.30;;;;;;4814226;29;20162;-71
2021/08/31 18:15:19;;;;;;;1.05;0.40;;;24.30;52.30;;;;;;4821050;29;20061;-72
2021/08/31 18:17:48;;;;;;;0.57;0.35;;;24.20;52.30;;;;;;4820631;29;20440;-72
2021/08/31 18:20:16;;;;;;;0.73;0.40;;;24.20;52.20;;;;;;4819478;29;20058;-72
2021/08/31 18:22:44;;;;;;;0.40;0.40;;;24.20;52.20;;;;;;4813402;29;20058;-71
2021/08/31 18:25:11;;;;;;;1.50;0.40;;;24.20;52.20;;;;;;4820591;29;20702;-72
2021/08/31 18:27:39;;;;;;;0.30;0.20;;;24.20;52.10;;;;;;4820442;29;20054;-71
2021/08/31 18:30:11;;;;;;;0.85;0.52;;;24.20;52.10;;;;;;4820613;29;20104;-72
2021/08/31 18:32:40;;;;;;;0.65;0.40;;;24.10;52.00;;;;;;4814023;29;20086;-71
2021/08/31 18:35:08;;;;;;;0.63;0.50;;;24.20;52.10;;;;;;4819303;29;20094;-72
2021/08/31 18:37:37;;;;;;;0.43;0.43;;;24.20;52.10;;;;;;4820191;29;20411;-72
2021/08/31 18:40:05;;;;;;;0.57;0.40;;;24.10;52.00;;;;;;4818752;29;20390;-72
2021/08/31 18:42:32;;;;;;;0.30;0.20;;;24.10;52.00;;;;;;4811240;29;20061;-71
2021/08/31 18:44:59;;;;;;;0.22;0.20;;;24.10;52.00;;;;;;4819207;29;20141;-71
2021/08/31 18:47:26;;;;;;;1.75;0.20;;;24.10;52.00;;;;;;4819191;29;20082;-72
2021/08/31 18:49:53;;;;;;;0.38;0.32;;;24.10;52.00;;;;;;4819521;29;20054;-71
2021/08/31 18:52:21;;;;;;;0.47;0.30;;;24.10;52.00;;;;;;4814315;29;20057;-72
2021/08/31 18:54:48;;;;;;;0.73;0.52;;;24.10;52.00;;;;;;4818937;29;20114;-72
2021/08/31 18:57:15;;;;;;;0.40;0.30;;;24.00;51.90;;;;;;4819374;29;20058;-72
2021/08/31 18:59:43;;;;;;;0.22;0.22;;;24.10;51.90;;;;;;4819969;29;20056;-72
2021/08/31 19:02:10;;;;;;;0.40;0.30;;;24.00;51.80;;;;;;4814102;29;20050;-71
2021/08/31 19:04:37;;;;;;;0.88;0.30;;;24.00;51.80;;;;;;4817832;29;20078;-71
2021/08/31 19:07:04;;;;;;;0.47;0.30;;;24.00;51.80;;;;;;4820208;29;20123;-72
2021/08/31 19:09:31;;;;;;;0.20;0.20;;;24.00;51.80;;;;;;4818989;29;20567;-72
2021/08/31 19:11:59;;;;;;;1.65;0.30;;;24.00;51.70;;;;;;4828325;29;20046;-71
2021/08/31 19:14:26;;;;;;;1.40;0.30;;;24.00;51.70;;;;;;4817436;29;20149;-72
2021/08/31 19:16:53;;;;;;;0.47;0.30;;;24.00;51.70;;;;;;4819710;29;20090;-72
2021/08/31 19:19:20;;;;;;;0.35;0.35;;;24.00;51.70;;;;;;4820458;29;20121;-72
2021/08/31 19:21:47;;;;;;;0.52;0.25;;;24.00;51.70;;;;;;4821444;29;20141;-70
2021/08/31 19:24:14;;;;;;;0.98;0.38;;;24.00;51.70;;;;;;4823443;29;20109;-71
2021/08/31 19:26:41;;;;;;;0.25;0.25;;;24.00;51.70;;;;;;4843454;29;20046;-72
2021/08/31 19:29:08;;;;;;;0.65;0.30;;;24.00;51.70;;;;;;4828903;29;20132;-72
2021/08/31 19:31:36;;;;;;;0.28;0.28;;;23.90;51.70;;;;;;4828290;29;20510;-71
2021/08/31 19:34:03;;;;;;;0.30;0.20;;;23.90;51.70;;;;;;4815987;29;20055;-72
2021/08/31 19:36:30;;;;;;;1.27;0.40;;;23.90;51.70;;;;;;4819446;29;20137;-72
2021/08/31 19:38:59;;;;;;;0.20;0.20;;;23.90;51.70;;;;;;4828942;29;20137;-71
2021/08/31 19:41:27;;;;;;;0.30;0.30;;;23.90;51.70;;;;;;4823417;29;20053;-71
2021/08/31 19:43:54;;;;;;;0.70;0.30;;;23.90;51.70;;;;;;4824345;29;20085;-72
2021/08/31 19:46:21;;;;;;;1.00;0.35;;;23.90;51.70;;;;;;4828140;29;20129;-71
2021/08/31 19:48:48;;;;;;;0.52;0.38;;;23.90;51.70;;;;;;4826916;29;20054;-72
2021/08/31 19:51:15;;;;;;;0.20;0.20;;;23.90;51.70;;;;;;4824004;29;20132;-71
2021/08/31 19:53:42;;;;;;;0.50;0.17;;;23.90;51.70;;;;;;4818204;29;20064;-71
2021/08/31 19:56:10;;;;;;;0.47;0.35;;;23.80;51.70;;;;;;4834477;29;20148;-72
2021/08/31 19:58:37;;;;;;;0.55;0.32;;;23.80;51.70;;;;;;4837185;29;20141;-72
2021/08/31 20:01:04;;;;;;;0.30;0.30;;;23.80;51.70;;;;;;4836282;29;20477;-71
2021/08/31 20:03:32;;;;;;;0.20;0.20;;;23.80;51.70;;;;;;4811741;29;20149;-73
2021/08/31 20:05:59;;;;;;;2.28;0.30;;;23.80;51.70;;;;;;4817588;29;20141;-71
2021/08/31 20:08:26;;;;;;;0.60;0.35;;;23.80;51.70;;;;;;4818951;29;20054;-72
2021/08/31 20:10:54;;;;;;;0.30;0.30;;;23.80;51.70;;;;;;4818994;29;20047;-72
2021/08/31 20:13:21;;;;;;;0.45;0.40;;;23.80;51.70;;;;;;4812141;29;20137;-71
2021/08/31 20:15:49;;;;;;;0.43;0.20;;;23.80;51.70;;;;;;4818774;29;20486;-72
2021/08/31 20:18:16;;;;;;;0.52;0.47;;;23.80;51.70;;;;;;4819061;29;20054;-72
2021/08/31 20:20:43;;;;;;;0.47;0.10;;;23.80;51.70;;;;;;4818811;29;20058;-71
2021/08/31 20:23:10;;;;;;;1.75;0.30;;;23.80;51.70;;;;;;4811840;29;20090;-71
2021/08/31 20:25:37;;;;;;;0.40;0.40;;;23.80;51.70;;;;;;4818689;29;20137;-72
2021/08/31 20:28:05;;;;;;;0.55;0.55;;;23.80;51.70;;;;;;4819027;29;20054;-71
2021/08/31 20:30:33;;;;;;;0.40;0.40;;;23.80;51.70;;;;;;4819029;29;20050;-71
2021/08/31 20:33:01;;;;;;;0.75;0.30;;;23.80;51.70;;;;;;4812244;29;20060;-71
2021/08/31 20:35:31;;;;;;;0.30;0.30;;;23.80;52.20;;;;;;4817123;29;20058;-72
2021/08/31 20:38:00;;;;;;;0.22;0.22;;;23.80;51.60;;;;;;4818579;29;20508;-71
2021/08/31 20:40:28;;;;;;;0.20;0.20;;;23.80;51.60;;;;;;4818451;29;20141;-71
2021/08/31 20:42:55;;;;;;;1.48;0.28;;;23.80;51.60;;;;;;4812006;29;20086;-71
2021/08/31 20:45:22;;;;;;;0.40;0.40;;;23.80;51.60;;;;;;4818271;29;20133;-72
2021/08/31 20:47:50;;;;;;;0.43;0.30;;;23.80;51.60;;;;;;4818510;29;20133;-72
2021/08/31 20:50:17;;;;;;;2.03;0.50;;;23.80;51.60;;;;;;4818115;29;20150;-72